LiveATC.Net - Listen to live air traffic control over the Internet!


ICAO: KMEV  IATA: MEV   Airport: Minden-Tahoe Airport
City: Minden   State/Province: Nevada
Country: United States   Continent: North America
KMEV METAR Weather: KMEV 190055Z AUTO 26019G29KT 10SM FEW050 OVC060 15/04 A2995 RMK AO2
KMEV Flight Activity (FlightAware)
KMEV Webcam:  (Airport Webcams) 
KMEV Airport Info   (iFlightPlanner)
KMEV VFR Sectional Chart   (iFlightPlanner) 
KMEV IFR Low Chart   (iFlightPlanner) 

KMEV CTAF/Unicom
Feed Status: UP   Listeners: 0
Listen in your browser - HTML5 player (in browser, HTML5)
Click here to listen with your own player (launches your MP3 player)
KMEV CTAF/Unicom Audio Archives
FacilityFrequency
Minden CTAF/UNICOM123.050

NOTICE

Unauthorized use prohibited. See LiveATC.net Terms of Service


Airport/ARTCC Code
Frequency Search
(e.g., 124.400, 128.75)
Site-wide search
 


Browse LiveATC Feeds
Top 50 LiveATC Feeds
LiveATC Feed Map
Bad Weather Areas

LiveATC FAQ
Offer LiveATC feed
Contact LiveATC.net
Press Inquiries

LiveATC on iPhone
LiveATC on Android

Windows Phone
Windows 8/10

LiveATC Mobile
(Mobile browser)

ATC Audio Archives
Interesting Recordings

LiveATC Forums


Home Page
About LiveATC.net
Make a Donation
Terms of Use
Privacy Policy

Canadian Air Freqs

AIRMETs/SIGMETs

FAA Airport Status
Nat'l Airspace Status
Arrival Demand Charts


Server Software By:
Icecast.org
Liquidsoap